createdAt,value
2022-07-31T00:00:49.986Z,9.6
2022-07-31T00:02:50.036Z,9.7
2022-07-31T00:04:50.387Z,9.7
2022-07-31T00:06:50.603Z,9.7
2022-07-31T00:08:50.574Z,9.2
2022-07-31T00:10:50.389Z,10.0
2022-07-31T00:12:50.259Z,10.0
2022-07-31T00:14:50.323Z,10.3
2022-07-31T00:16:50.617Z,10.3
2022-07-31T00:18:50.636Z,10.0
2022-07-31T00:20:49.692Z,9.7
2022-07-31T00:22:49.755Z,9.2
2022-07-31T00:24:49.977Z,9.2
2022-07-31T00:26:53.106Z,8.6
2022-07-31T00:28:49.925Z,9.5
2022-07-31T00:30:49.977Z,8.9
2022-07-31T00:32:52.129Z,9.0
2022-07-31T00:34:50.528Z,9.0
2022-07-31T00:36:49.726Z,9.1
2022-07-31T00:38:50.710Z,9.0
2022-07-31T00:40:49.871Z,8.6
2022-07-31T00:42:49.873Z,8.6
2022-07-31T00:44:49.788Z,8.5
2022-07-31T00:46:49.902Z,8.6
2022-07-31T00:48:50.012Z,8.6
2022-07-31T00:50:50.247Z,8.9
2022-07-31T00:52:50.214Z,8.8
2022-07-31T00:54:50.161Z,8.8
2022-07-31T00:56:50.530Z,9.1
2022-07-31T00:58:50.440Z,9.3
2022-07-31T01:00:50.520Z,9.6
2022-07-31T01:02:50.669Z,9.9
2022-07-31T01:04:50.138Z,9.9
2022-07-31T01:06:50.342Z,9.3
2022-07-31T01:08:50.383Z,9.3
2022-07-31T01:10:50.656Z,9.4
2022-07-31T01:12:54.469Z,9.0
2022-07-31T01:14:50.547Z,9.0
2022-07-31T01:16:49.707Z,9.3
2022-07-31T01:18:50.246Z,9.3
2022-07-31T01:20:50.544Z,8.8
2022-07-31T01:22:50.402Z,8.8
2022-07-31T01:24:50.314Z,9.0
2022-07-31T01:26:50.559Z,9.1
2022-07-31T01:28:50.500Z,8.7
2022-07-31T01:31:17.533Z,9.0
2022-07-31T01:32:50.681Z,9.0
2022-07-31T01:34:50.238Z,9.2
2022-07-31T01:36:50.496Z,8.7
2022-07-31T01:38:50.247Z,8.7
2022-07-31T01:40:49.992Z,8.8
2022-07-31T01:42:49.856Z,8.8
2022-07-31T01:44:50.074Z,8.9
2022-07-31T01:46:50.189Z,9.0
2022-07-31T01:48:50.426Z,8.3
2022-07-31T01:50:50.367Z,8.9
2022-07-31T01:52:50.228Z,8.9
2022-07-31T01:54:50.122Z,9.3
2022-07-31T01:56:50.334Z,9.9
2022-07-31T01:58:50.174Z,9.8
2022-07-31T02:00:50.144Z,9.7
2022-07-31T02:02:54.584Z,9.7
2022-07-31T02:04:49.893Z,9.8
2022-07-31T02:06:50.368Z,9.2
2022-07-31T02:08:50.557Z,9.4
2022-07-31T02:10:50.525Z,8.9
2022-07-31T02:12:50.360Z,9.0
2022-07-31T02:14:51.039Z,9.0
2022-07-31T02:16:49.742Z,9.5
2022-07-31T02:18:50.693Z,9.4
2022-07-31T02:20:49.903Z,9.4
2022-07-31T02:22:49.764Z,8.8
2022-07-31T02:24:49.948Z,8.8
2022-07-31T02:26:49.908Z,9.6
2022-07-31T02:28:49.771Z,10.2
2022-07-31T02:30:50.599Z,10.1
2022-07-31T02:32:49.763Z,10.2
2022-07-31T02:34:50.076Z,10.2
2022-07-31T02:36:50.319Z,10.3
2022-07-31T02:38:50.287Z,10.3
2022-07-31T02:40:50.066Z,10.2
2022-07-31T02:42:50.026Z,10.2
2022-07-31T02:44:50.014Z,10.2
2022-07-31T02:46:50.082Z,10.2
2022-07-31T02:48:50.044Z,9.8
2022-07-31T02:50:50.566Z,9.8
2022-07-31T02:52:50.528Z,9.3
2022-07-31T02:54:50.178Z,9.6
2022-07-31T02:56:50.192Z,9.2
2022-07-31T02:58:50.246Z,10.1
2022-07-31T03:00:50.456Z,10.1
2022-07-31T03:02:50.531Z,9.6
2022-07-31T03:04:49.878Z,9.5
2022-07-31T03:06:50.224Z,8.6
2022-07-31T03:08:50.178Z,8.6
2022-07-31T03:10:50.090Z,9.1
2022-07-31T03:12:50.192Z,8.7
2022-07-31T03:14:50.108Z,8.7
2022-07-31T03:16:50.448Z,8.7
2022-07-31T03:18:50.428Z,9.4
2022-07-31T03:20:50.308Z,9.2
2022-07-31T03:22:50.210Z,9.2
2022-07-31T03:24:51.577Z,9.5
2022-07-31T03:26:49.855Z,9.2
2022-07-31T03:28:49.838Z,9.2
2022-07-31T03:30:49.709Z,9.2
2022-07-31T03:32:49.729Z,9.0
2022-07-31T03:34:50.307Z,8.9
2022-07-31T03:36:50.539Z,8.7
2022-07-31T03:38:50.999Z,8.7
2022-07-31T03:40:49.870Z,9.3
2022-07-31T03:42:50.107Z,8.7
2022-07-31T03:44:50.117Z,8.9
2022-07-31T03:46:50.286Z,8.8
2022-07-31T03:48:50.265Z,8.5
2022-07-31T03:50:50.341Z,8.5
2022-07-31T03:52:50.499Z,8.5
2022-07-31T03:54:50.350Z,8.6
2022-07-31T03:56:49.693Z,8.8
2022-07-31T03:58:52.923Z,9.3
2022-07-31T04:00:51.862Z,9.3
2022-07-31T04:02:49.879Z,9.0
2022-07-31T04:04:49.716Z,9.2
2022-07-31T04:06:49.869Z,9.1
2022-07-31T04:08:49.927Z,8.3
2022-07-31T04:10:49.795Z,8.3
2022-07-31T04:12:50.697Z,8.6
2022-07-31T04:14:50.494Z,8.8
2022-07-31T04:16:49.767Z,8.8
2022-07-31T04:18:51.244Z,8.6
2022-07-31T04:20:50.124Z,8.6
2022-07-31T04:22:50.470Z,9.1
2022-07-31T04:24:50.386Z,8.2
2022-07-31T04:26:49.892Z,8.1
2022-07-31T04:28:49.735Z,8.1
2022-07-31T04:30:49.743Z,7.8
2022-07-31T04:32:49.826Z,7.8
2022-07-31T04:34:50.245Z,8.1
2022-07-31T04:36:50.382Z,8.1
2022-07-31T04:38:50.278Z,8.0
2022-07-31T04:40:50.118Z,7.6
2022-07-31T04:42:50.059Z,7.7
2022-07-31T04:44:50.122Z,7.4
2022-07-31T04:46:50.209Z,7.4
2022-07-31T04:48:50.423Z,7.4
2022-07-31T04:50:50.454Z,7.3
2022-07-31T04:52:50.248Z,8.1
2022-07-31T04:54:50.183Z,8.2
2022-07-31T04:56:50.402Z,8.2
2022-07-31T04:58:50.418Z,8.4
2022-07-31T05:00:50.391Z,8.3
2022-07-31T05:02:50.612Z,8.3
2022-07-31T05:04:57.295Z,8.3
2022-07-31T05:06:49.814Z,9.4
2022-07-31T05:08:49.780Z,8.9
2022-07-31T05:10:50.025Z,9.2
2022-07-31T05:12:50.034Z,9.2
2022-07-31T05:14:49.962Z,9.2
2022-07-31T05:16:50.333Z,9.1
2022-07-31T05:18:50.190Z,9.5
2022-07-31T05:20:50.088Z,8.7
2022-07-31T05:22:49.829Z,9.2
2022-07-31T05:24:50.620Z,9.2
2022-07-31T05:26:49.778Z,9.1
2022-07-31T05:28:49.928Z,9.3
2022-07-31T05:30:49.803Z,9.0
2022-07-31T05:32:50.617Z,9.6
2022-07-31T05:34:51.228Z,9.6
2022-07-31T05:36:50.303Z,9.8
2022-07-31T05:38:50.191Z,9.3
2022-07-31T05:40:50.001Z,9.8
2022-07-31T05:42:50.232Z,9.8
2022-07-31T05:44:50.137Z,9.2
2022-07-31T05:48:52.528Z,8.7
2022-07-31T05:50:50.563Z,8.8
2022-07-31T05:52:49.678Z,8.4
2022-07-31T05:54:49.875Z,8.4
2022-07-31T05:56:50.298Z,8.4
2022-07-31T05:58:50.046Z,8.7
2022-07-31T06:00:50.006Z,8.2
2022-07-31T06:02:49.981Z,8.4
2022-07-31T06:04:50.506Z,8.4
2022-07-31T06:06:50.644Z,8.6
2022-07-31T06:08:50.595Z,8.6
2022-07-31T06:10:50.754Z,7.9
2022-07-31T06:12:50.005Z,8.3
2022-07-31T06:14:49.897Z,8.3
2022-07-31T06:16:49.978Z,7.6
2022-07-31T06:18:49.948Z,8.6
2022-07-31T06:20:49.880Z,8.1
2022-07-31T06:22:49.813Z,8.1
2022-07-31T06:24:49.763Z,8.2
2022-07-31T06:26:49.826Z,8.2
2022-07-31T06:28:49.778Z,7.9
2022-07-31T06:30:50.102Z,7.9
2022-07-31T06:32:50.378Z,8.5
2022-07-31T06:34:50.577Z,8.0
2022-07-31T06:36:49.818Z,8.8
2022-07-31T06:38:49.711Z,8.6
2022-07-31T06:40:49.745Z,8.6
2022-07-31T06:42:50.622Z,9.3
2022-07-31T06:44:50.600Z,8.3
2022-07-31T06:46:49.854Z,8.6
2022-07-31T06:48:50.791Z,8.4
2022-07-31T06:50:59.904Z,8.4
2022-07-31T06:52:50.674Z,7.7
2022-07-31T06:54:50.586Z,7.7
2022-07-31T06:56:49.911Z,8.7
2022-07-31T06:58:49.997Z,8.2
2022-07-31T07:00:51.112Z,8.2
2022-07-31T07:02:50.008Z,7.6
2022-07-31T07:05:05.469Z,8.1
2022-07-31T07:06:50.281Z,8.1
2022-07-31T07:08:50.002Z,7.8
2022-07-31T07:10:49.950Z,8.0
2022-07-31T07:12:49.728Z,8.0
2022-07-31T07:14:49.965Z,7.7
2022-07-31T07:16:50.128Z,7.3
2022-07-31T07:18:49.967Z,7.2
2022-07-31T07:20:49.903Z,6.7
2022-07-31T07:22:49.912Z,6.7
2022-07-31T07:24:50.195Z,6.7
2022-07-31T07:26:50.246Z,6.7
2022-07-31T07:28:50.284Z,6.3
2022-07-31T07:30:50.028Z,6.3
2022-07-31T07:32:49.919Z,6.2
2022-07-31T07:35:00.601Z,6.1
2022-07-31T07:36:49.945Z,6.1
2022-07-31T07:38:49.913Z,6.1
2022-07-31T07:40:50.029Z,6.0
2022-07-31T07:42:49.735Z,5.7
2022-07-31T07:44:49.739Z,5.6
2022-07-31T07:46:50.050Z,5.6
2022-07-31T07:48:50.042Z,5.6
2022-07-31T07:50:50.184Z,5.9
2022-07-31T07:52:50.199Z,6.0
2022-07-31T07:54:50.170Z,5.4
2022-07-31T07:56:50.481Z,5.5
2022-07-31T07:58:50.515Z,5.5
2022-07-31T08:00:50.666Z,5.2
2022-07-31T08:03:02.999Z,5.2
2022-07-31T08:04:49.820Z,4.9
2022-07-31T08:06:49.961Z,5.0
2022-07-31T08:08:49.772Z,5.0
2022-07-31T08:10:50.624Z,4.5
2022-07-31T08:12:50.524Z,4.4
2022-07-31T08:14:50.398Z,4.7
2022-07-31T08:16:49.718Z,4.7
2022-07-31T08:18:50.576Z,4.8
2022-07-31T08:20:50.527Z,4.6
2022-07-31T08:22:50.485Z,4.3
2022-07-31T08:24:50.460Z,3.9
2022-07-31T08:26:50.667Z,3.9
2022-07-31T08:28:51.366Z,3.8
2022-07-31T08:30:50.246Z,3.8
2022-07-31T08:32:50.038Z,3.9
2022-07-31T08:34:50.282Z,3.9
2022-07-31T08:36:50.286Z,3.9
2022-07-31T08:38:50.174Z,3.9
2022-07-31T08:40:50.214Z,3.9
2022-07-31T08:42:50.288Z,3.6
2022-07-31T08:44:50.163Z,3.5
2022-07-31T08:46:50.863Z,3.5
2022-07-31T08:48:50.787Z,3.5
2022-07-31T08:50:54.083Z,3.7
2022-07-31T08:52:50.159Z,3.6
2022-07-31T08:54:50.095Z,3.4
2022-07-31T08:56:50.433Z,3.7
2022-07-31T08:58:50.295Z,3.7
2022-07-31T09:00:50.328Z,3.6
2022-07-31T09:02:50.388Z,3.8
2022-07-31T09:04:53.076Z,3.7
2022-07-31T09:06:50.185Z,3.7
2022-07-31T09:08:50.200Z,4.1
2022-07-31T09:10:50.626Z,3.7
2022-07-31T09:12:50.643Z,3.6
2022-07-31T09:14:49.743Z,3.3
2022-07-31T09:16:50.020Z,3.3
2022-07-31T09:18:50.145Z,3.4
2022-07-31T09:20:49.891Z,3.5
2022-07-31T09:22:49.951Z,3.6
2022-07-31T09:24:49.883Z,3.6
2022-07-31T09:26:50.259Z,3.6
2022-07-31T09:28:50.179Z,3.7
2022-07-31T09:30:57.179Z,3.5
2022-07-31T09:32:50.182Z,3.5
2022-07-31T09:34:50.621Z,3.5
2022-07-31T09:36:49.696Z,3.7
2022-07-31T09:38:49.822Z,3.5
2022-07-31T09:40:57.986Z,3.6
2022-07-31T09:42:55.859Z,3.6
2022-07-31T09:44:49.835Z,3.5
2022-07-31T09:46:50.165Z,3.4
2022-07-31T09:48:51.263Z,3.6
2022-07-31T09:50:50.076Z,3.3
2022-07-31T09:52:50.159Z,3.7
2022-07-31T09:54:50.035Z,3.7
2022-07-31T09:56:50.380Z,3.2
2022-07-31T09:58:50.262Z,3.2
2022-07-31T10:00:50.175Z,3.1
2022-07-31T10:02:50.330Z,3.1
2022-07-31T10:04:49.705Z,3.1
2022-07-31T10:06:49.821Z,3.1
2022-07-31T10:08:50.655Z,3.0
2022-07-31T10:10:50.547Z,3.0
2022-07-31T10:12:50.291Z,3.0
2022-07-31T10:14:50.223Z,2.8
2022-07-31T10:16:50.385Z,2.8
2022-07-31T10:18:50.353Z,2.9
2022-07-31T10:20:50.245Z,2.9
2022-07-31T10:22:50.523Z,3.1
2022-07-31T10:24:50.569Z,3.1
2022-07-31T10:27:01.468Z,2.9
2022-07-31T10:28:50.206Z,2.7
2022-07-31T10:30:50.391Z,2.7
2022-07-31T10:32:50.424Z,2.6
2022-07-31T10:34:49.882Z,2.6
2022-07-31T10:36:50.138Z,2.5
2022-07-31T10:38:50.013Z,2.6
2022-07-31T10:40:49.878Z,2.6
2022-07-31T10:42:49.912Z,2.5
2022-07-31T10:44:49.901Z,2.3
2022-07-31T10:46:49.983Z,2.7
2022-07-31T10:48:50.184Z,2.5
2022-07-31T10:50:50.336Z,2.5
2022-07-31T10:52:50.527Z,2.3
2022-07-31T10:54:50.407Z,2.3
2022-07-31T10:56:50.672Z,2.5
2022-07-31T10:58:50.635Z,2.6
2022-07-31T11:00:50.547Z,2.3
2022-07-31T11:02:50.277Z,2.3
2022-07-31T11:04:49.743Z,2.4
2022-07-31T11:06:50.227Z,2.5
2022-07-31T11:08:50.153Z,2.5
2022-07-31T11:10:50.024Z,2.3
2022-07-31T11:12:49.909Z,2.3
2022-07-31T11:14:50.160Z,2.5
2022-07-31T11:16:50.513Z,2.4
2022-07-31T11:18:50.572Z,2.1
2022-07-31T11:20:50.536Z,2.1
2022-07-31T11:22:50.471Z,2.2
2022-07-31T11:24:50.406Z,2.1
2022-07-31T11:26:49.714Z,2.0
2022-07-31T11:28:50.550Z,2.0
2022-07-31T11:30:50.307Z,2.0
2022-07-31T11:32:50.481Z,2.1
2022-07-31T11:34:49.724Z,1.8
2022-07-31T11:36:51.876Z,1.8
2022-07-31T11:38:49.876Z,2.0
2022-07-31T11:40:49.880Z,2.0
2022-07-31T11:44:50.398Z,2.3
2022-07-31T11:46:50.704Z,1.9
2022-07-31T11:48:50.451Z,1.9
2022-07-31T11:50:49.798Z,1.7
2022-07-31T11:52:49.763Z,2.0
2022-07-31T11:54:49.680Z,2.1
2022-07-31T11:56:50.049Z,1.9
2022-07-31T11:58:50.115Z,1.9
2022-07-31T12:00:50.073Z,1.6
2022-07-31T12:02:50.272Z,1.6
2022-07-31T12:04:49.849Z,1.6
2022-07-31T12:06:50.336Z,1.7
2022-07-31T12:08:50.230Z,1.5
2022-07-31T12:10:50.214Z,1.5
2022-07-31T12:12:50.099Z,1.4
2022-07-31T12:14:50.211Z,1.6
2022-07-31T12:16:50.499Z,1.6
2022-07-31T12:18:50.427Z,1.6
2022-07-31T12:20:50.349Z,1.5
2022-07-31T12:22:50.193Z,1.6
2022-07-31T12:24:50.850Z,1.4
2022-07-31T12:26:49.946Z,1.4
2022-07-31T12:28:49.866Z,1.6
2022-07-31T12:30:49.862Z,1.6
2022-07-31T12:32:49.796Z,1.6
2022-07-31T12:34:50.392Z,1.6
2022-07-31T12:36:49.767Z,1.5
2022-07-31T12:38:49.714Z,1.5
2022-07-31T12:40:50.577Z,1.6
2022-07-31T12:42:49.857Z,1.6
2022-07-31T12:44:49.939Z,1.7
2022-07-31T12:46:49.948Z,1.7
2022-07-31T12:48:50.087Z,1.5
2022-07-31T12:50:50.289Z,1.7
2022-07-31T12:52:50.092Z,1.7
2022-07-31T12:54:50.011Z,1.9
2022-07-31T12:56:50.217Z,1.9
2022-07-31T12:58:50.016Z,1.6
2022-07-31T13:00:50.275Z,1.8
2022-07-31T13:02:50.270Z,1.7
2022-07-31T13:04:49.670Z,2.1
2022-07-31T13:06:49.926Z,2.1
2022-07-31T13:08:49.878Z,1.7
2022-07-31T13:10:49.938Z,1.9
2022-07-31T13:12:50.022Z,1.7
2022-07-31T13:14:49.976Z,1.7
2022-07-31T13:16:50.299Z,1.6
2022-07-31T13:18:50.345Z,1.6
2022-07-31T13:20:50.295Z,1.7
2022-07-31T13:22:50.172Z,1.5
2022-07-31T13:24:50.065Z,1.5
2022-07-31T13:26:50.361Z,1.7
2022-07-31T13:28:51.168Z,1.7
2022-07-31T13:30:55.381Z,1.8
2022-07-31T13:32:50.351Z,1.7
2022-07-31T13:35:19.830Z,1.9
2022-07-31T13:36:49.996Z,1.9
2022-07-31T13:38:49.971Z,1.7
2022-07-31T13:40:49.877Z,1.9
2022-07-31T13:42:49.687Z,1.6
2022-07-31T13:44:49.958Z,1.6
2022-07-31T13:46:50.036Z,2.0
2022-07-31T13:48:50.082Z,1.9
2022-07-31T13:50:50.213Z,2.2
2022-07-31T13:52:50.078Z,2.2
2022-07-31T13:54:49.950Z,1.7
2022-07-31T13:56:50.114Z,1.9
2022-07-31T13:58:49.980Z,1.9
2022-07-31T14:00:49.792Z,1.9
2022-07-31T14:02:50.247Z,1.9
2022-07-31T14:04:49.742Z,1.9
2022-07-31T14:06:51.868Z,2.0
2022-07-31T14:08:50.908Z,2.0
2022-07-31T14:10:50.345Z,1.9
2022-07-31T14:12:50.562Z,1.9
2022-07-31T14:14:50.445Z,1.8
2022-07-31T14:16:49.891Z,1.9
2022-07-31T14:18:50.633Z,1.9
2022-07-31T14:20:50.625Z,2.0
2022-07-31T14:22:50.472Z,2.0
2022-07-31T14:24:51.530Z,1.9
2022-07-31T14:26:49.727Z,1.9
2022-07-31T14:28:49.880Z,2.0
2022-07-31T14:30:49.971Z,1.8
2022-07-31T14:32:49.878Z,1.8
2022-07-31T14:34:50.222Z,1.9
2022-07-31T14:36:50.478Z,2.1
2022-07-31T14:38:50.418Z,1.9
2022-07-31T14:40:50.220Z,2.0
2022-07-31T14:42:50.211Z,2.0
2022-07-31T14:44:49.940Z,1.9
2022-07-31T14:46:50.555Z,1.9
2022-07-31T14:48:50.502Z,1.9
2022-07-31T14:50:50.560Z,1.9
2022-07-31T14:52:50.504Z,1.8
2022-07-31T14:54:50.497Z,2.0
2022-07-31T14:57:01.378Z,1.9
2022-07-31T14:58:58.971Z,1.9
2022-07-31T15:00:50.024Z,1.9
2022-07-31T15:02:49.990Z,1.9
2022-07-31T15:04:50.567Z,1.9
2022-07-31T15:07:07.546Z,1.9
2022-07-31T15:08:49.939Z,2.0
2022-07-31T15:10:49.739Z,2.0
2022-07-31T15:12:49.824Z,2.1
2022-07-31T15:14:49.951Z,2.1
2022-07-31T15:16:50.111Z,2.0
2022-07-31T15:18:51.776Z,2.0
2022-07-31T15:20:50.520Z,2.0
2022-07-31T15:22:50.411Z,1.8
2022-07-31T15:24:50.651Z,1.8
2022-07-31T15:26:50.042Z,2.0
2022-07-31T15:28:49.996Z,2.0
2022-07-31T15:30:49.889Z,1.9
2022-07-31T15:32:50.006Z,1.8
2022-07-31T15:34:50.481Z,2.1
2022-07-31T15:36:50.609Z,2.2
2022-07-31T15:38:50.571Z,2.1
2022-07-31T15:40:49.689Z,2.1
2022-07-31T15:42:50.833Z,1.9
2022-07-31T15:44:49.938Z,1.8
2022-07-31T15:46:50.152Z,1.8
2022-07-31T15:48:50.268Z,1.8
2022-07-31T15:50:50.303Z,1.8
2022-07-31T15:52:50.365Z,1.7
2022-07-31T15:54:52.627Z,1.9
2022-07-31T15:56:50.115Z,2.0
2022-07-31T15:58:54.044Z,2.0
2022-07-31T16:00:52.251Z,1.6
2022-07-31T16:02:50.415Z,1.9
2022-07-31T16:04:54.932Z,1.6
2022-07-31T16:06:50.802Z,1.6
2022-07-31T16:08:50.083Z,1.6
2022-07-31T16:10:55.131Z,1.8
2022-07-31T16:12:50.265Z,1.7
2022-07-31T16:14:50.717Z,1.6
2022-07-31T16:16:56.705Z,1.6
2022-07-31T16:18:50.412Z,1.6
2022-07-31T16:20:50.342Z,1.7
2022-07-31T16:22:54.491Z,1.7
2022-07-31T16:24:50.462Z,1.6
2022-07-31T16:26:50.505Z,1.6
2022-07-31T16:28:54.431Z,1.9
2022-07-31T16:30:50.422Z,1.8
2022-07-31T16:32:50.429Z,1.7
2022-07-31T16:34:57.127Z,1.7
2022-07-31T16:36:49.966Z,1.7
2022-07-31T16:39:19.277Z,1.8
2022-07-31T16:40:53.750Z,1.8
2022-07-31T16:42:50.648Z,1.9
2022-07-31T16:44:50.540Z,1.8
2022-07-31T16:46:55.094Z,1.8
2022-07-31T16:48:50.203Z,1.9
2022-07-31T16:50:54.932Z,1.8
2022-07-31T16:52:55.424Z,1.8
2022-07-31T16:54:50.389Z,1.7
2022-07-31T16:56:50.593Z,1.7
2022-07-31T16:58:54.606Z,2.1
2022-07-31T17:00:50.521Z,1.9
2022-07-31T17:02:50.643Z,2.0
2022-07-31T17:04:54.301Z,1.9
2022-07-31T17:06:50.570Z,1.9
2022-07-31T17:08:50.646Z,2.0
2022-07-31T17:10:54.903Z,1.7
2022-07-31T17:12:49.911Z,1.9
2022-07-31T17:14:49.968Z,1.9
2022-07-31T17:16:50.144Z,1.9
2022-07-31T17:18:54.615Z,1.9
2022-07-31T17:20:50.437Z,1.8
2022-07-31T17:22:54.702Z,1.7
2022-07-31T17:24:51.508Z,1.7
2022-07-31T17:26:49.928Z,1.9
2022-07-31T17:28:49.746Z,2.0
2022-07-31T17:30:49.839Z,2.1
2022-07-31T17:32:49.717Z,2.0
2022-07-31T17:34:50.048Z,2.0
2022-07-31T17:36:50.397Z,1.9
2022-07-31T17:38:50.508Z,1.8
2022-07-31T17:40:50.437Z,2.1
2022-07-31T17:42:50.452Z,2.0
2022-07-31T17:44:55.633Z,2.0
2022-07-31T17:46:50.080Z,1.9
2022-07-31T17:48:50.027Z,2.0
2022-07-31T17:50:54.420Z,2.3
2022-07-31T17:52:50.447Z,2.3
2022-07-31T17:54:50.570Z,2.4
2022-07-31T17:56:52.244Z,2.5
2022-07-31T17:58:50.546Z,2.3
2022-07-31T18:00:50.430Z,2.2
2022-07-31T18:02:50.510Z,2.2
2022-07-31T18:04:49.866Z,2.0
2022-07-31T18:06:54.966Z,2.0
2022-07-31T18:08:50.166Z,3.4
2022-07-31T18:10:54.848Z,2.9
2022-07-31T18:12:58.449Z,2.8
2022-07-31T18:14:50.334Z,2.8
2022-07-31T18:16:49.682Z,2.4
2022-07-31T18:18:54.760Z,2.7
2022-07-31T18:20:50.138Z,2.6
2022-07-31T18:22:50.311Z,2.5
2022-07-31T18:24:50.356Z,2.5
2022-07-31T18:26:49.832Z,2.4
2022-07-31T18:28:49.954Z,2.9
2022-07-31T18:30:49.886Z,2.6
2022-07-31T18:32:49.930Z,2.6
2022-07-31T18:34:50.441Z,2.4
2022-07-31T18:36:55.161Z,3.0
2022-07-31T18:38:50.350Z,3.2
2022-07-31T18:40:50.382Z,3.0
2022-07-31T18:42:50.179Z,3.0
2022-07-31T18:44:50.223Z,2.9
2022-07-31T18:46:50.555Z,3.3
2022-07-31T18:48:56.415Z,3.9
2022-07-31T18:51:04.288Z,3.7
2022-07-31T18:52:50.302Z,3.7
2022-07-31T18:54:54.628Z,4.5
2022-07-31T18:56:52.836Z,4.0
2022-07-31T18:58:49.722Z,4.9
2022-07-31T19:00:55.331Z,3.9
2022-07-31T19:02:49.802Z,3.9
2022-07-31T19:04:50.245Z,2.9
2022-07-31T19:06:54.641Z,3.0
2022-07-31T19:08:49.902Z,2.8
2022-07-31T19:10:49.951Z,2.8
2022-07-31T19:12:49.921Z,3.1
2022-07-31T19:14:49.821Z,2.8
2022-07-31T19:16:50.043Z,2.8
2022-07-31T19:18:50.691Z,3.1
2022-07-31T19:21:17.808Z,3.1
2022-07-31T19:22:50.665Z,2.8
2022-07-31T19:24:50.622Z,2.8
2022-07-31T19:26:49.994Z,2.9
2022-07-31T19:28:49.852Z,2.7
2022-07-31T19:30:49.991Z,2.7
2022-07-31T19:32:49.964Z,2.8
2022-07-31T19:34:52.539Z,2.8
2022-07-31T19:36:50.515Z,3.2
2022-07-31T19:38:49.878Z,3.0
2022-07-31T19:40:49.769Z,3.0
2022-07-31T19:42:49.858Z,2.9
2022-07-31T19:44:49.742Z,2.9
2022-07-31T19:46:49.932Z,2.9
2022-07-31T19:48:50.254Z,3.0
2022-07-31T19:50:54.018Z,3.0
2022-07-31T19:52:49.865Z,3.0
2022-07-31T19:54:49.888Z,2.6
2022-07-31T19:56:50.073Z,3.1
2022-07-31T19:58:50.132Z,3.1
2022-07-31T20:00:50.207Z,3.0
2022-07-31T20:02:50.237Z,3.1
2022-07-31T20:04:49.876Z,3.4
2022-07-31T20:06:50.447Z,3.4
2022-07-31T20:08:50.381Z,3.4
2022-07-31T20:10:51.657Z,3.0
2022-07-31T20:12:49.739Z,3.0
2022-07-31T20:14:49.861Z,2.7
2022-07-31T20:16:50.067Z,2.6
2022-07-31T20:18:50.092Z,2.6
2022-07-31T20:20:56.345Z,2.9
2022-07-31T20:22:50.292Z,2.6
2022-07-31T20:24:50.110Z,2.9
2022-07-31T20:26:50.342Z,2.9
2022-07-31T20:28:50.337Z,3.0
2022-07-31T20:30:50.655Z,3.8
2022-07-31T20:32:51.587Z,3.4
2022-07-31T20:34:49.802Z,3.4
2022-07-31T20:36:49.781Z,3.5
2022-07-31T20:38:49.782Z,3.5
2022-07-31T20:40:55.536Z,3.0
2022-07-31T20:42:49.992Z,2.8
2022-07-31T20:44:49.944Z,2.8
2022-07-31T20:46:50.594Z,2.9
2022-07-31T20:48:50.304Z,2.9
2022-07-31T20:50:50.617Z,3.1
2022-07-31T20:52:50.448Z,3.3
2022-07-31T20:54:50.306Z,3.2
2022-07-31T20:56:50.190Z,3.3
2022-07-31T20:58:52.284Z,3.3
2022-07-31T21:00:49.988Z,2.9
2022-07-31T21:02:50.104Z,3.3
2022-07-31T21:04:50.270Z,3.3
2022-07-31T21:06:50.113Z,3.3
2022-07-31T21:08:49.687Z,3.5
2022-07-31T21:10:50.499Z,3.3
2022-07-31T21:12:50.049Z,3.3
2022-07-31T21:14:49.853Z,3.3
2022-07-31T21:16:51.178Z,3.0
2022-07-31T21:18:49.940Z,3.4
2022-07-31T21:20:53.885Z,3.4
2022-07-31T21:22:50.618Z,3.2
2022-07-31T21:24:50.554Z,3.2
2022-07-31T21:26:51.274Z,3.2
2022-07-31T21:28:50.461Z,3.2
2022-07-31T21:30:50.315Z,3.2
2022-07-31T21:32:50.173Z,3.5
2022-07-31T21:34:50.636Z,3.5
2022-07-31T21:36:50.606Z,3.4
2022-07-31T21:38:50.297Z,3.1
2022-07-31T21:40:49.921Z,3.1
2022-07-31T21:42:56.682Z,3.1
2022-07-31T21:44:50.447Z,3.1
2022-07-31T21:46:52.059Z,3.2
2022-07-31T21:48:50.025Z,3.3
2022-07-31T21:50:50.269Z,3.4
2022-07-31T21:52:50.180Z,3.4
2022-07-31T21:54:49.769Z,3.4
2022-07-31T21:56:49.918Z,3.4
2022-07-31T21:58:50.570Z,3.4
2022-07-31T22:00:50.357Z,3.5
2022-07-31T22:02:49.979Z,3.5
2022-07-31T22:04:49.993Z,3.5
2022-07-31T22:06:50.052Z,3.4
2022-07-31T22:08:49.761Z,3.6
2022-07-31T22:10:50.459Z,3.4
2022-07-31T22:12:50.369Z,3.4
2022-07-31T22:14:49.934Z,3.8
2022-07-31T22:16:50.903Z,3.6
2022-07-31T22:18:50.502Z,3.5
2022-07-31T22:20:50.083Z,3.5
2022-07-31T22:22:49.886Z,3.6
2022-07-31T22:24:50.546Z,3.1
2022-07-31T22:26:50.571Z,3.1
2022-07-31T22:28:50.223Z,3.6
2022-07-31T22:30:49.796Z,3.6
2022-07-31T22:32:53.669Z,3.7
2022-07-31T22:34:49.805Z,3.4
2022-07-31T22:36:49.809Z,3.7
2022-07-31T22:38:50.600Z,3.6
2022-07-31T22:40:50.097Z,3.7
2022-07-31T22:42:57.678Z,3.7
2022-07-31T22:44:49.922Z,3.5
2022-07-31T22:46:50.044Z,3.5
2022-07-31T22:48:50.687Z,3.5
2022-07-31T22:50:50.588Z,3.5
2022-07-31T22:52:50.243Z,3.5
2022-07-31T22:54:49.862Z,3.7
2022-07-31T22:56:50.026Z,3.8
2022-07-31T22:58:50.605Z,3.7
2022-07-31T23:00:50.558Z,3.8
2022-07-31T23:02:50.404Z,3.8
2022-07-31T23:04:49.719Z,3.9
2022-07-31T23:06:49.692Z,4.0
2022-07-31T23:08:54.669Z,3.8
2022-07-31T23:10:49.892Z,3.8
2022-07-31T23:12:49.836Z,3.8
2022-07-31T23:14:50.312Z,3.5
2022-07-31T23:16:50.334Z,3.8
2022-07-31T23:18:50.086Z,3.9
2022-07-31T23:20:50.628Z,3.9
2022-07-31T23:22:50.232Z,3.9
2022-07-31T23:24:49.917Z,3.7
2022-07-31T23:26:49.678Z,4.3
2022-07-31T23:28:50.467Z,4.4
2022-07-31T23:30:51.652Z,4.4
2022-07-31T23:32:50.529Z,4.1
2022-07-31T23:34:50.546Z,4.0
2022-07-31T23:36:49.703Z,4.5
2022-07-31T23:38:50.470Z,4.5
2022-07-31T23:40:50.190Z,4.0
2022-07-31T23:42:49.753Z,4.4
2022-07-31T23:44:51.348Z,4.5
2022-07-31T23:46:50.364Z,4.0
2022-07-31T23:48:50.747Z,4.0
2022-07-31T23:50:50.420Z,4.1
2022-07-31T23:52:50.202Z,4.0
2022-07-31T23:54:49.890Z,4.3
2022-07-31T23:56:49.801Z,3.7
2022-07-31T23:58:50.534Z,3.7
